Time;durP1;ratioP1;P1;durP2;ratioP2;P2;SDS_P1;SDS_P2;PMS_P1;PMS_P2;Temp;Humidity;BMP_temperature;BMP_pressure;BME280_temperature;BME280_humidity;BME280_pressure;Samples;Min_cycle;Max_cycle;Signal;HPM_P1;HPM_P2
2024/01/01 00:00:32;;;;;;;0.60;0.50;;;;;;;1.25;71.64;95069.13;6245589;28;20041;-68
2024/01/01 00:03:38;;;;;;;0.68;0.50;;;;;;;1.19;71.56;95074.66;6245765;28;20054;-67
2024/01/01 00:06:39;;;;;;;0.98;0.45;;;;;;;1.17;71.56;95067.91;6245430;28;20068;-67
2024/01/01 00:09:46;;;;;;;0.70;0.32;;;;;;;1.21;71.47;95067.63;6245801;28;20049;-67
2024/01/01 00:12:53;;;;;;;0.55;0.38;;;;;;;1.11;71.79;95062.16;6245685;28;20430;-68
2024/01/01 00:15:57;;;;;;;0.88;0.30;;;;;;;1.19;71.42;95066.03;6244591;28;20052;-68
2024/01/01 00:18:59;;;;;;;0.70;0.50;;;;;;;1.18;70.98;95052.25;6244734;28;20049;-68
2024/01/01 00:22:07;;;;;;;0.85;0.30;;;;;;;1.27;70.68;95067.28;6245423;28;20045;-69
2024/01/01 00:25:11;;;;;;;0.63;0.30;;;;;;;1.26;70.53;95052.66;6245466;28;20492;-68
2024/01/01 00:28:12;;;;;;;0.30;0.30;;;;;;;1.20;70.93;95044.41;6226860;28;20080;-68
2024/01/01 00:31:18;;;;;;;0.40;0.40;;;;;;;1.16;71.17;95051.53;6244769;28;20050;-67
2024/01/01 00:34:23;;;;;;;0.40;0.40;;;;;;;1.20;70.85;95045.25;6244770;28;20046;-68
2024/01/01 00:37:24;;;;;;;0.60;0.40;;;;;;;1.02;70.29;95041.09;6244787;28;20060;-69
2024/01/01 00:40:28;;;;;;;0.60;0.50;;;;;;;1.05;70.75;95041.78;6245162;28;20049;-68
2024/01/01 00:43:32;;;;;;;0.30;0.30;;;;;;;1.11;69.88;95030.22;6244230;28;20075;-67
2024/01/01 00:46:33;;;;;;;0.52;0.40;;;;;;;1.02;70.41;95035.91;6244389;28;20049;-68
2024/01/01 00:49:34;;;;;;;0.30;0.30;;;;;;;1.18;69.72;95036.72;6243833;28;20493;-68
2024/01/01 00:52:38;;;;;;;0.40;0.30;;;;;;;1.17;69.38;95018.69;6244705;28;20037;-67
2024/01/01 00:55:40;;;;;;;0.32;0.32;;;;;;;1.16;69.43;95036.00;6243855;28;20053;-67
2024/01/01 00:58:41;;;;;;;0.57;0.40;;;;;;;1.08;70.00;95030.41;6244067;28;20045;-67
2024/01/01 01:01:43;;;;;;;0.60;0.40;;;;;;;1.17;69.52;95029.06;6226623;28;20042;-68
2024/01/01 01:04:46;;;;;;;0.75;0.50;;;;;;;1.16;69.66;95035.13;6244547;28;20048;-68
2024/01/01 01:07:47;;;;;;;0.75;0.43;;;;;;;1.10;69.36;95033.72;6243951;28;20092;-67
2024/01/01 01:10:49;;;;;;;0.88;0.68;;;;;;;0.99;70.07;95046.44;6242781;28;20053;-67
2024/01/01 01:13:50;;;;;;;0.35;0.35;;;;;;;1.12;69.51;95031.88;6244237;28;20180;-67
2024/01/01 01:16:57;;;;;;;0.30;0.22;;;;;;;1.07;69.69;95023.53;6244423;28;20061;-67
2024/01/01 01:20:01;;;;;;;0.90;0.60;;;;;;;1.09;69.23;95021.72;6244417;28;20038;-67
2024/01/01 01:23:03;;;;;;;0.65;0.60;;;;;;;0.89;69.36;95030.59;6243525;28;20045;-67
2024/01/01 01:26:04;;;;;;;0.30;0.30;;;;;;;0.77;70.38;95021.78;6244079;28;20038;-67
2024/01/01 01:29:11;;;;;;;0.82;0.82;;;;;;;0.69;70.55;95023.97;6243504;28;20057;-68
2024/01/01 01:32:15;;;;;;;0.63;0.63;;;;;;;0.57;70.77;95029.81;6226421;28;20545;-67
2024/01/01 01:35:17;;;;;;;2.13;0.70;;;;;;;0.49;71.30;95021.66;6244186;28;20400;-67
2024/01/01 01:38:21;;;;;;;0.30;0.30;;;;;;;0.53;71.80;95023.13;6225715;28;20136;-68
2024/01/01 01:41:28;;;;;;;0.80;0.60;;;;;;;0.57;72.08;95019.47;6244138;28;20037;-68
2024/01/01 01:44:33;;;;;;;0.50;0.50;;;;;;;0.57;71.74;95016.88;6244038;28;20045;-67
2024/01/01 01:47:38;;;;;;;1.43;0.63;;;;;;;0.42;72.00;95010.78;6243987;28;20041;-68
2024/01/01 01:50:41;;;;;;;0.77;0.77;;;;;;;0.59;70.94;95012.44;6226118;28;20137;-67
2024/01/01 01:53:47;;;;;;;0.50;0.50;;;;;;;0.62;69.82;95044.19;6258441;28;20060;-68
2024/01/01 01:56:54;;;;;;;0.60;0.60;;;;;;;0.72;68.16;95034.13;6268262;28;20049;-68
2024/01/01 01:59:59;;;;;;;0.68;0.68;;;;;;;0.86;67.14;95015.25;6268618;28;20044;-68
2024/01/01 02:03:05;;;;;;;1.45;0.68;;;;;;;0.96;66.40;95037.09;6233712;28;20044;-68
2024/01/01 02:06:11;;;;;;;0.70;0.57;;;;;;;0.97;66.17;95037.97;6268468;28;20490;-67
2024/01/01 02:09:15;;;;;;;0.60;0.60;;;;;;;1.03;65.97;95022.88;6268211;28;20045;-67
2024/01/01 02:12:17;;;;;;;;;;;;;;;1.24;65.45;95041.53;6250682;28;20048;-67
2024/01/01 02:15:20;;;;;;;0.70;0.70;;;;;;;0.92;65.90;95024.44;6268172;28;19960;-67
2024/01/01 02:18:25;;;;;;;0.73;0.60;;;;;;;1.06;66.17;95032.25;6268449;28;20487;-67
2024/01/01 02:21:48;;;;;;;0.90;0.60;;;;;;;1.11;65.76;95032.81;6251893;28;20045;-67
2024/01/01 02:24:52;;;;;;;0.70;0.68;;;;;;;0.99;66.00;95017.97;6273058;28;20044;-67
2024/01/01 02:27:56;;;;;;;0.60;0.60;;;;;;;0.85;65.85;95022.19;6271748;28;20140;-67
2024/01/01 02:30:58;;;;;;;;;;;;;;;0.89;66.62;95005.53;6254880;28;20506;-67
2024/01/01 02:34:05;;;;;;;1.80;0.77;;;;;;;0.86;66.24;95008.31;6272778;28;19927;-67
2024/01/01 02:37:06;;;;;;;0.85;0.73;;;;;;;0.79;66.17;95004.41;6271979;28;20060;-68
2024/01/01 02:40:11;;;;;;;1.27;0.57;;;;;;;0.94;66.16;95007.06;6272545;28;20044;-67
2024/01/01 02:43:18;;;;;;;0.75;0.75;;;;;;;0.85;66.93;95009.25;6272725;28;20049;-67
2024/01/01 02:46:19;;;;;;;0.75;0.70;;;;;;;0.95;66.32;95011.31;6254413;28;20648;-68
2024/01/01 02:49:25;;;;;;;0.45;0.45;;;;;;;1.05;66.15;95010.69;6272059;28;20049;-68
2024/01/01 02:52:29;;;;;;;0.80;0.70;;;;;;;1.08;66.05;95005.34;6267930;28;20411;-67
2024/01/01 02:55:31;;;;;;;1.85;1.30;;;;;;;1.09;65.80;95000.97;6263947;28;20045;-67
2024/01/01 02:58:38;;;;;;;1.70;1.20;;;;;;;0.95;67.11;95003.53;6272222;28;20494;-68
2024/01/01 03:01:43;;;;;;;2.38;1.35;;;;;;;0.98;66.73;95000.75;6272492;28;20041;-69
2024/01/01 03:04:49;;;;;;;1.80;0.70;;;;;;;0.95;67.58;94998.34;6271446;28;20045;-68
2024/01/01 03:07:51;;;;;;;2.22;1.58;;;;;;;0.95;67.70;95001.78;6271381;28;20048;-67
2024/01/01 03:10:54;;;;;;;1.73;1.27;;;;;;;0.97;66.79;95001.69;6271633;28;20498;-67
2024/01/01 03:14:00;;;;;;;1.85;1.02;;;;;;;1.01;66.82;94998.00;6270664;28;20421;-68
2024/01/01 03:17:04;;;;;;;1.50;1.00;;;;;;;1.09;66.43;95011.34;6271795;28;20416;-66
2024/01/01 03:20:06;;;;;;;0.88;0.88;;;;;;;1.08;66.83;95001.91;6271723;28;20036;-66
2024/01/01 03:23:10;;;;;;;1.50;1.00;;;;;;;1.09;66.59;95011.34;6269541;28;20167;-67
2024/01/01 03:26:14;;;;;;;1.48;0.98;;;;;;;0.93;67.40;95010.53;6270976;28;20056;-67
2024/01/01 03:29:15;;;;;;;;;;;;;;;1.07;66.96;95023.53;6270993;28;20064;-66
2024/01/01 03:32:19;;;;;;;0.70;0.70;;;;;;;0.96;66.72;95015.53;6271323;28;19920;-67
2024/01/01 03:35:20;;;;;;;1.20;0.80;;;;;;;1.14;65.81;95024.03;6270595;28;20446;-67
2024/01/01 03:38:24;;;;;;;0.73;0.63;;;;;;;1.04;65.87;95018.53;6270536;28;20056;-67
2024/01/01 03:41:30;;;;;;;0.80;0.70;;;;;;;0.95;66.22;95045.78;6271062;28;20036;-68
2024/01/01 03:44:37;;;;;;;0.85;0.63;;;;;;;0.99;66.02;95047.31;6271273;28;20456;-68
2024/01/01 03:47:41;;;;;;;0.52;0.52;;;;;;;0.99;66.56;95043.84;6271002;28;20045;-68
2024/01/01 03:50:45;;;;;;;1.40;1.05;;;;;;;0.82;66.64;95050.84;6270256;28;20075;-68
2024/01/01 03:53:48;;;;;;;0.73;0.70;;;;;;;0.88;66.67;95045.31;6263199;28;20053;-67
2024/01/01 03:56:50;;;;;;;0.63;0.53;;;;;;;0.93;66.71;95057.16;6246025;28;20057;-68
2024/01/01 03:59:52;;;;;;;0.98;0.70;;;;;;;0.95;66.62;95034.59;6246107;28;20495;-67
2024/01/01 04:02:53;;;;;;;1.33;1.10;;;;;;;0.86;66.55;95036.78;6245949;28;20040;-67
2024/01/01 04:05:54;;;;;;;1.30;0.70;;;;;;;0.88;66.25;95049.66;6245100;28;20423;-67
2024/01/01 04:08:55;;;;;;;0.88;0.63;;;;;;;0.56;67.41;95043.66;6244977;28;20056;-67
2024/01/01 04:12:02;;;;;;;2.22;0.80;;;;;;;0.58;67.26;95036.66;6245780;28;20049;-68
2024/01/01 04:15:07;;;;;;;1.27;0.85;;;;;;;0.36;67.41;95037.81;6245576;28;20037;-66
2024/01/01 04:18:13;;;;;;;0.98;0.73;;;;;;;0.28;67.68;95034.81;6212490;28;20045;-69
2024/01/01 04:21:17;;;;;;;0.70;0.50;;;;;;;0.28;68.19;95045.16;6244577;28;20045;-68
2024/01/01 04:24:18;;;;;;;2.10;0.90;;;;;;;0.25;67.76;95044.50;6244689;28;20053;-67
2024/01/01 04:27:19;;;;;;;0.63;0.40;;;;;;;0.34;67.11;95044.84;6244978;28;20045;-68
2024/01/01 04:30:23;;;;;;;1.33;0.85;;;;;;;0.34;66.82;95033.63;6227832;28;20511;-68
2024/01/01 04:33:29;;;;;;;0.30;0.30;;;;;;;0.52;66.77;95049.94;6245123;28;20474;-68
2024/01/01 04:36:33;;;;;;;1.33;1.00;;;;;;;0.56;66.65;95048.84;6245109;28;20041;-68
2024/01/01 04:39:41;;;;;;;3.42;1.20;;;;;;;0.50;66.92;95044.00;6244977;28;20430;-67
2024/01/01 04:42:50;;;;;;;0.93;0.80;;;;;;;0.53;66.04;95049.00;6244975;28;20060;-67
2024/01/01 04:45:52;;;;;;;0.80;0.80;;;;;;;0.54;66.78;95061.00;6244903;28;20267;-68
2024/01/01 04:48:53;;;;;;;0.68;0.40;;;;;;;0.67;66.30;95059.44;6227087;28;20050;-68
2024/01/01 04:51:58;;;;;;;1.17;1.05;;;;;;;0.57;66.95;95055.69;6244040;28;20053;-69
2024/01/01 04:54:59;;;;;;;2.03;1.30;;;;;;;0.51;66.89;95061.19;6244683;28;20061;-68
2024/01/01 04:58:03;;;;;;;1.38;0.95;;;;;;;0.68;66.85;95066.31;6243394;28;20053;-68
2024/01/01 05:01:09;;;;;;;1.00;0.90;;;;;;;0.50;67.67;95069.88;6227486;28;20511;-68
2024/01/01 05:04:13;;;;;;;2.08;1.00;;;;;;;0.59;67.36;95059.00;6226681;28;20680;-68
2024/01/01 05:07:14;;;;;;;1.33;1.20;;;;;;;0.56;67.73;95059.19;6244225;28;20041;-68
2024/01/01 05:10:19;;;;;;;1.20;1.10;;;;;;;0.60;67.79;95052.94;6244279;28;20091;-68
2024/01/01 05:13:22;;;;;;;1.10;0.90;;;;;;;0.56;68.22;95041.91;6244335;28;20037;-68
2024/01/01 05:16:26;;;;;;;1.63;0.98;;;;;;;0.65;67.84;95030.22;6244004;28;20041;-67
2024/01/01 05:19:30;;;;;;;1.95;1.58;;;;;;;0.76;67.39;95051.16;6243511;28;20123;-68
2024/01/01 05:22:32;;;;;;;2.42;1.77;;;;;;;0.67;67.16;95052.50;6244178;28;20531;-67
2024/01/01 05:25:33;;;;;;;1.30;1.10;;;;;;;0.64;67.28;95062.19;6244042;28;20038;-67
2024/01/01 05:28:35;;;;;;;1.30;1.00;;;;;;;0.79;67.12;95061.38;6243153;28;20068;-68
2024/01/01 05:31:38;;;;;;;2.00;1.15;;;;;;;0.83;67.05;95062.84;6244116;28;20353;-68
2024/01/01 05:34:43;;;;;;;2.03;1.48;;;;;;;0.81;67.07;95056.91;6243919;28;20045;-69
2024/01/01 05:37:54;;;;;;;1.52;1.42;;;;;;;0.72;66.98;95054.00;6244107;28;20041;-67
2024/01/01 05:41:04;;;;;;;2.22;1.85;;;;;;;0.55;67.73;95052.34;6227199;28;20047;-69
2024/01/01 05:44:06;;;;;;;2.25;1.75;;;;;;;0.42;68.40;95055.59;6243158;28;20046;-68
2024/01/01 05:47:11;;;;;;;2.05;1.42;;;;;;;0.51;68.82;95061.19;6243934;28;20124;-68
2024/01/01 05:50:16;;;;;;;0.93;0.93;;;;;;;0.60;68.56;95040.84;6242647;28;20056;-68
2024/01/01 05:53:22;;;;;;;1.73;1.63;;;;;;;0.40;69.51;95034.16;6245377;28;20503;-67
2024/01/01 05:56:24;;;;;;;1.40;1.30;;;;;;;0.62;68.66;95043.31;6244906;28;20414;-69
2024/01/01 05:59:28;;;;;;;1.50;1.35;;;;;;;0.66;68.26;95050.00;6248050;28;20053;-67
2024/01/01 06:02:32;;;;;;;1.33;1.10;;;;;;;0.83;68.16;95042.16;6248039;28;20468;-67
2024/01/01 06:05:36;;;;;;;1.02;0.80;;;;;;;0.90;67.85;95053.81;6247836;28;20041;-67
2024/01/01 06:08:43;;;;;;;1.83;1.08;;;;;;;0.88;67.80;95060.84;6247899;28;20061;-68
2024/01/01 06:11:50;;;;;;;1.65;1.23;;;;;;;0.92;67.77;95058.09;6248357;28;20104;-69
2024/01/01 06:14:54;;;;;;;0.75;0.75;;;;;;;1.21;66.30;95049.50;6214973;28;20502;-67
2024/01/01 06:17:56;;;;;;;1.42;1.10;;;;;;;1.15;66.37;95061.97;6248012;28;20034;-67
2024/01/01 06:21:00;;;;;;;1.45;1.05;;;;;;;1.35;65.66;95065.06;6247737;28;20045;-67
2024/01/01 06:24:02;;;;;;;0.90;0.73;;;;;;;1.52;64.42;95058.09;6247444;28;20404;-68
2024/01/01 06:27:06;;;;;;;;;;;;;;;1.69;64.17;95051.91;6248320;28;20514;-67
2024/01/01 06:30:09;;;;;;;1.25;0.93;;;;;;;1.55;64.63;95060.50;6247980;28;19921;-67
2024/01/01 06:33:14;;;;;;;1.08;0.70;;;;;;;1.59;64.74;95059.41;6247851;28;20088;-67
2024/01/01 06:36:18;;;;;;;1.30;1.20;;;;;;;1.57;64.28;95048.28;6247736;28;20415;-67
2024/01/01 06:39:20;;;;;;;0.88;0.88;;;;;;;1.51;65.06;95056.44;6229593;28;20092;-68
2024/01/01 06:42:22;;;;;;;0.68;0.68;;;;;;;1.64;65.07;95053.94;6247721;28;20132;-67
2024/01/01 06:45:26;;;;;;;0.82;0.60;;;;;;;1.72;64.50;95042.19;6247210;28;20140;-67
2024/01/01 06:48:30;;;;;;;1.33;0.88;;;;;;;1.77;64.02;95039.34;6229695;28;20785;-67
2024/01/01 06:51:33;;;;;;;0.75;0.70;;;;;;;1.85;63.96;95046.66;6229330;28;20583;-68
2024/01/01 06:54:39;;;;;;;1.02;0.70;;;;;;;2.08;63.25;95042.69;6268109;28;20163;-68
2024/01/01 06:57:45;;;;;;;0.60;0.57;;;;;;;2.07;62.56;95031.47;6253774;28;20052;-67
2024/01/01 07:00:52;;;;;;;1.48;0.60;;;;;;;2.18;62.19;95049.81;6271115;28;20064;-68
2024/01/01 07:03:58;;;;;;;0.68;0.60;;;;;;;2.22;61.95;95040.91;6272153;28;20045;-67
2024/01/01 07:07:05;;;;;;;0.82;0.75;;;;;;;2.20;61.89;95045.34;6271845;28;20048;-68
2024/01/01 07:10:08;;;;;;;0.57;0.45;;;;;;;2.23;61.67;95047.75;6270667;28;20045;-68
2024/01/01 07:13:18;;;;;;;0.82;0.75;;;;;;;2.13;61.88;95051.84;6270729;28;20045;-68
2024/01/01 07:16:22;;;;;;;0.57;0.45;;;;;;;2.19;62.15;95061.88;6271781;28;20049;-68
2024/01/01 07:19:26;;;;;;;0.50;0.50;;;;;;;2.29;61.66;95046.56;6271647;28;20041;-67
2024/01/01 07:22:28;;;;;;;1.00;0.60;;;;;;;2.37;60.99;95035.72;6270759;28;20055;-67
2024/01/01 07:25:30;;;;;;;0.47;0.32;;;;;;;2.42;60.54;95034.50;6270563;28;20060;-68
2024/01/01 07:28:36;;;;;;;0.63;0.38;;;;;;;2.43;60.13;95043.09;6270761;28;20049;-67
2024/01/01 07:31:42;;;;;;;0.70;0.60;;;;;;;2.31;60.64;95049.06;6271393;28;20045;-68
2024/01/01 07:34:44;;;;;;;0.47;0.40;;;;;;;2.32;60.89;95045.53;6271010;28;20495;-68
2024/01/01 07:37:48;;;;;;;0.50;0.50;;;;;;;2.28;60.71;95039.69;6271123;28;20049;-68
2024/01/01 07:40:57;;;;;;;0.47;0.47;;;;;;;2.33;60.28;95042.03;6271300;28;20477;-70
2024/01/01 07:43:58;;;;;;;0.30;0.30;;;;;;;2.41;60.18;95029.41;6269638;28;20048;-68
2024/01/01 07:47:04;;;;;;;3.50;1.85;;;;;;;2.48;59.62;95035.88;6270866;28;20048;-67
2024/01/01 07:50:07;;;;;;;1.17;0.50;;;;;;;2.36;59.92;95041.84;6270760;28;20037;-68
2024/01/01 07:53:13;;;;;;;0.57;0.57;;;;;;;2.42;59.60;95033.66;6270860;28;20045;-68
2024/01/01 07:56:17;;;;;;;0.50;0.40;;;;;;;2.70;58.44;95035.38;6270912;28;20419;-68
2024/01/01 07:59:18;;;;;;;0.40;0.40;;;;;;;2.70;58.64;95036.19;6270933;28;20033;-68
2024/01/01 08:02:20;;;;;;;0.30;0.30;;;;;;;2.58;58.95;95020.56;6270568;28;20033;-67
2024/01/01 08:05:24;;;;;;;0.20;0.20;;;;;;;2.67;58.69;95022.56;6270342;28;20041;-67
2024/01/01 08:08:26;;;;;;;0.35;0.35;;;;;;;2.65;58.74;95025.25;6269497;28;20056;-68
2024/01/01 08:11:30;;;;;;;0.30;0.30;;;;;;;2.62;58.88;95040.22;6269727;28;20060;-68
2024/01/01 08:14:32;;;;;;;0.30;0.30;;;;;;;2.60;58.91;95027.31;6268988;28;20152;-68
2024/01/01 08:17:37;;;;;;;0.20;0.20;;;;;;;2.65;58.60;95025.25;6269451;28;20558;-68
2024/01/01 08:20:41;;;;;;;1.00;0.55;;;;;;;2.56;59.13;95032.81;6269731;28;20049;-67
2024/01/01 08:23:47;;;;;;;0.57;0.40;;;;;;;2.56;59.02;95023.25;6269905;28;20084;-68
2024/01/01 08:26:54;;;;;;;0.52;0.40;;;;;;;2.66;58.57;95024.34;6270019;28;20045;-68
2024/01/01 08:30:05;;;;;;;0.52;0.38;;;;;;;2.50;58.99;95028.84;6269974;28;20049;-69
2024/01/01 08:33:13;;;;;;;0.50;0.40;;;;;;;2.54;58.89;95025.09;6269098;28;20049;-68
2024/01/01 08:36:19;;;;;;;0.45;0.32;;;;;;;2.49;58.99;95027.16;6269248;28;20056;-67
2024/01/01 08:39:20;;;;;;;0.50;0.38;;;;;;;2.47;59.11;95026.44;6269973;28;20048;-68
2024/01/01 08:42:21;;;;;;;1.15;0.75;;;;;;;2.33;59.61;95010.88;6268701;28;20044;-68
2024/01/01 08:45:26;;;;;;;0.30;0.30;;;;;;;2.38;59.30;95022.66;6268130;28;20045;-68
2024/01/01 08:48:33;;;;;;;0.80;0.40;;;;;;;2.40;58.84;95038.09;6269306;28;20509;-67
2024/01/01 08:51:39;;;;;;;0.30;0.20;;;;;;;2.47;58.09;95003.06;6269241;28;20580;-69
2024/01/01 08:54:45;;;;;;;0.63;0.40;;;;;;;2.42;58.79;95007.72;6246395;28;20570;-67
2024/01/01 08:57:49;;;;;;;0.30;0.30;;;;;;;2.54;58.52;94993.13;6244050;28;20056;-67
2024/01/01 09:00:55;;;;;;;0.40;0.30;;;;;;;2.66;57.57;95002.72;6244642;28;20490;-68
2024/01/01 09:04:06;;;;;;;1.40;0.30;;;;;;;2.75;57.59;94996.13;6227546;28;20487;-68
2024/01/01 09:07:08;;;;;;;0.20;0.20;;;;;;;2.82;58.02;94992.19;6226297;28;20392;-68
2024/01/01 09:10:15;;;;;;;0.30;0.30;;;;;;;3.11;57.72;95004.16;6243590;28;20092;-68
2024/01/01 09:13:18;;;;;;;0.10;0.10;;;;;;;4.11;55.57;94994.00;6244390;28;20448;-68
2024/01/01 09:16:20;;;;;;;0.40;0.40;;;;;;;3.96;54.37;95004.53;6243621;28;20140;-69
2024/01/01 09:19:21;;;;;;;0.90;0.38;;;;;;;3.45;55.13;95001.06;6243883;28;20049;-68
2024/01/01 09:22:25;;;;;;;0.30;0.30;;;;;;;3.02;56.18;94994.31;6244450;28;20128;-67
2024/01/01 09:25:27;;;;;;;0.20;0.20;;;;;;;3.03;56.17;94993.41;6244095;28;20037;-67
2024/01/01 09:28:29;;;;;;;0.38;0.38;;;;;;;2.82;57.14;94994.78;6244243;28;20041;-69
2024/01/01 09:31:35;;;;;;;0.20;0.20;;;;;;;2.85;56.83;94994.59;6242551;28;20053;-67
2024/01/01 09:34:40;;;;;;;0.40;0.32;;;;;;;2.81;57.41;94993.13;6244574;28;20126;-67
2024/01/01 09:37:43;;;;;;;0.20;0.20;;;;;;;3.09;56.74;94994.78;6243934;28;20136;-68
2024/01/01 09:40:48;;;;;;;0.20;0.20;;;;;;;3.28;56.46;94978.78;6243198;28;20061;-68
2024/01/01 09:43:58;;;;;;;0.22;0.17;;;;;;;3.69;54.95;94985.59;6244010;28;20054;-68
2024/01/01 09:47:05;;;;;;;0.20;0.20;;;;;;;3.58;55.40;94994.13;6243879;28;20041;-68
2024/01/01 09:50:07;;;;;;;0.63;0.20;;;;;;;4.57;52.67;94980.34;6243580;28;20458;-69
2024/01/01 09:53:12;;;;;;;0.20;0.10;;;;;;;4.78;52.72;94963.16;6242803;28;20045;-68
2024/01/01 09:56:18;;;;;;;0.20;0.20;;;;;;;4.97;51.87;94982.69;6243034;28;20056;-68
2024/01/01 09:59:39;;;;;;;0.10;0.10;;;;;;;5.29;51.07;94973.31;6243693;28;20038;-68
2024/01/01 10:02:46;;;;;;;0.10;0.10;;;;;;;4.66;51.56;94984.88;6243152;28;20049;-68
2024/01/01 10:05:48;;;;;;;0.20;0.20;;;;;;;3.90;53.63;94976.31;6243254;28;20049;-68
2024/01/01 10:08:50;;;;;;;0.35;0.28;;;;;;;3.54;54.53;94980.50;6243028;28;20422;-67
2024/01/01 10:11:53;;;;;;;0.20;0.20;;;;;;;3.11;55.85;94983.34;6243614;28;20576;-68
2024/01/01 10:14:58;;;;;;;1.65;0.50;;;;;;;2.97;56.37;94995.56;6242858;28;20049;-68
2024/01/01 10:18:14;;;;;;;0.30;0.20;;;;;;;2.78;56.87;95001.13;6243584;28;20037;-68
2024/01/01 10:21:15;;;;;;;0.60;0.40;;;;;;;2.80;57.08;95004.44;6242996;28;20053;-70
2024/01/01 10:24:21;;;;;;;0.93;0.55;;;;;;;2.76;57.26;94988.22;6242227;28;20211;-68
2024/01/01 10:27:23;;;;;;;0.40;0.40;;;;;;;2.61;57.76;94989.22;6242356;28;20053;-68
2024/01/01 10:30:24;;;;;;;0.40;0.40;;;;;;;2.48;57.58;94996.94;6225108;28;20049;-69
2024/01/01 10:33:29;;;;;;;0.30;0.30;;;;;;;2.28;57.40;94998.19;6243493;28;20038;-69
2024/01/01 10:36:30;;;;;;;0.40;0.40;;;;;;;2.18;57.47;94986.69;6242677;28;20056;-68
2024/01/01 10:39:36;;;;;;;0.77;0.40;;;;;;;2.09;57.50;94998.47;6242769;28;20423;-69
2024/01/01 10:42:38;;;;;;;0.20;0.20;;;;;;;1.82;57.75;94995.00;6243701;28;20061;-68
2024/01/01 10:45:44;;;;;;;0.10;0.10;;;;;;;1.67;58.65;95002.75;6246800;28;20041;-69
2024/01/01 10:48:49;;;;;;;0.30;0.30;;;;;;;1.35;59.03;95000.28;6230249;28;20045;-67
2024/01/01 10:52:23;;;;;;;1.10;0.30;;;;;;;1.22;59.34;94996.78;6246966;28;20057;-67
2024/01/01 10:55:47;;;;;;;0.10;0.10;;;;;;;0.88;60.76;95003.88;6265345;28;20057;-69
2024/01/01 10:59:23;;;;;;;0.30;0.22;;;;;;;0.87;61.04;94984.06;6272357;28;20041;-68
2024/01/01 11:02:28;;;;;;;0.40;0.30;;;;;;;0.76;61.10;95004.56;6269696;28;20530;-68
2024/01/01 11:05:33;;;;;;;1.10;0.43;;;;;;;0.65;62.31;94996.56;6272273;28;20045;-67
2024/01/01 11:08:39;;;;;;;0.60;0.38;;;;;;;0.51;63.36;95001.66;6271729;28;20128;-69
2024/01/01 11:11:46;;;;;;;0.25;0.20;;;;;;;0.40;64.09;94987.59;6271642;28;20041;-68
2024/01/01 11:14:52;;;;;;;0.10;0.10;;;;;;;0.44;64.47;94996.84;6271911;28;20366;-67
2024/01/01 11:17:53;;;;;;;0.98;0.60;;;;;;;0.58;64.61;94984.91;6271183;28;20044;-68
2024/01/01 11:21:01;;;;;;;0.73;0.50;;;;;;;0.61;64.46;94984.72;6271756;28;20420;-68
2024/01/01 11:24:03;;;;;;;0.40;0.40;;;;;;;0.46;64.94;95001.13;6271267;28;20049;-69
2024/01/01 11:27:32;;;;;;;0.75;0.15;;;;;;;0.69;64.16;94992.91;6271442;28;20133;-68
2024/01/01 11:30:39;;;;;;;0.93;0.40;;;;;;;0.71;63.51;94991.06;6270832;28;20435;-68
2024/01/01 11:33:42;;;;;;;0.75;0.40;;;;;;;0.47;63.74;94998.44;6271313;28;20044;-67
2024/01/01 11:36:47;;;;;;;0.40;0.30;;;;;;;0.49;64.07;94988.00;6269972;28;20422;-68
2024/01/01 11:40:04;;;;;;;0.32;0.30;;;;;;;0.61;63.69;94988.13;6271359;28;20595;-68
2024/01/01 11:43:10;;;;;;;0.60;0.50;;;;;;;0.80;62.93;94990.53;6271460;28;20041;-68
2024/01/01 11:46:27;;;;;;;0.73;0.43;;;;;;;0.86;62.62;94994.53;6270849;28;20045;-68
2024/01/01 11:49:28;;;;;;;0.73;0.57;;;;;;;0.66;62.62;94987.91;6271161;28;20037;-69
2024/01/01 11:52:32;;;;;;;1.08;0.70;;;;;;;0.68;62.87;94983.47;6275605;28;20044;-68
2024/01/01 11:55:36;;;;;;;0.60;0.60;;;;;;;0.26;63.58;94979.75;6276653;28;20422;-68
2024/01/01 11:58:40;;;;;;;1.15;0.40;;;;;;;0.24;63.94;94991.94;6270566;28;20048;-68
2024/01/01 12:01:46;;;;;;;0.30;0.30;;;;;;;0.06;64.86;94967.91;6270563;28;20037;-69
2024/01/01 12:04:50;;;;;;;1.70;0.80;;;;;;;-0.03;64.86;94969.25;6270767;28;20159;-67
2024/01/01 12:07:57;;;;;;;3.97;2.05;;;;;;;-0.04;65.47;94964.13;6270429;28;20049;-68
2024/01/01 12:11:04;;;;;;;4.28;2.45;;;;;;;-0.09;65.49;94960.94;6270377;28;20045;-68
2024/01/01 12:14:08;;;;;;;4.95;1.55;;;;;;;0.02;64.79;94981.06;6270453;28;20461;-68
2024/01/01 12:17:13;;;;;;;0.90;0.60;;;;;;;0.07;65.17;94979.06;6270297;28;20510;-67
2024/01/01 12:20:20;;;;;;;1.08;0.88;;;;;;;0.14;65.05;94972.63;6269411;28;21388;-67
2024/01/01 12:23:24;;;;;;;1.45;0.60;;;;;;;0.22;65.06;94988.56;6269620;28;20048;-68
2024/01/01 12:26:26;;;;;;;2.03;1.00;;;;;;;0.11;64.52;94977.97;6269480;28;20410;-68
2024/01/01 12:29:30;;;;;;;2.22;1.25;;;;;;;0.12;64.86;94977.09;6269880;28;20045;-67
2024/01/01 12:32:34;;;;;;;3.95;2.10;;;;;;;0.15;64.23;94982.91;6269140;28;20422;-70
2024/01/01 12:35:35;;;;;;;;;;;;;;;0.17;64.20;94985.41;6269423;28;20045;-67
2024/01/01 12:38:40;;;;;;;1.60;1.40;;;;;;;0.35;64.20;94994.75;6268636;28;19923;-67
2024/01/01 12:41:44;;;;;;;0.95;0.47;;;;;;;0.50;63.66;94990.50;6268974;28;20048;-68
2024/01/01 12:44:49;;;;;;;1.92;0.80;;;;;;;0.40;63.37;94992.75;6269609;28;20418;-67
2024/01/01 12:47:50;;;;;;;1.88;0.80;;;;;;;0.33;64.41;95001.75;6268919;28;20052;-68
2024/01/01 12:50:52;;;;;;;1.00;0.75;;;;;;;0.32;63.87;94984.59;6268761;28;20053;-68
2024/01/01 12:53:57;;;;;;;2.13;0.88;;;;;;;0.36;63.87;94988.66;6268703;28;20056;-68
2024/01/01 12:57:03;;;;;;;1.85;0.80;;;;;;;0.27;63.97;94989.16;6269495;28;20517;-69
2024/01/01 13:00:09;;;;;;;1.67;0.65;;;;;;;0.19;63.69;94975.81;6269564;28;20048;-67
2024/01/01 13:03:13;;;;;;;0.68;0.68;;;;;;;0.01;63.79;94985.41;6269314;28;20051;-68
2024/01/01 13:06:16;;;;;;;1.20;1.10;;;;;;;-0.08;64.32;94985.91;6268645;28;20110;-68
2024/01/01 13:09:18;;;;;;;0.80;0.57;;;;;;;-0.16;63.89;94981.13;6268462;28;20049;-67
2024/01/01 13:12:28;;;;;;;1.83;0.60;;;;;;;-0.33;64.97;94994.94;6268986;28;20495;-68
2024/01/01 13:15:36;;;;;;;1.05;0.65;;;;;;;-0.27;64.32;94997.22;6269354;28;20045;-69
2024/01/01 13:18:38;;;;;;;0.80;0.80;;;;;;;-0.40;65.02;94987.59;6250682;28;20581;-67
2024/01/01 13:21:40;;;;;;;1.05;0.95;;;;;;;-0.51;65.37;94989.00;6268060;28;20045;-67
2024/01/01 13:24:41;;;;;;;1.98;0.98;;;;;;;-0.47;65.65;95006.00;6268027;28;20045;-67
2024/01/01 13:27:48;;;;;;;2.10;1.52;;;;;;;-0.53;65.66;94990.81;6268955;28;20052;-67
2024/01/01 13:30:54;;;;;;;1.98;1.40;;;;;;;-0.66;65.32;94994.94;6268950;28;20444;-68
2024/01/01 13:33:56;;;;;;;1.42;1.33;;;;;;;-0.70;65.76;95001.19;6268851;28;20044;-67
2024/01/01 13:37:01;;;;;;;;;;;;;;;-0.60;65.48;94993.78;6269261;28;20036;-67
2024/01/01 13:40:06;;;;;;;1.08;0.80;;;;;;;-0.70;66.46;94989.09;6268577;28;20311;-69
2024/01/01 13:43:11;;;;;;;1.63;1.23;;;;;;;-0.97;66.54;94996.47;6268606;28;20175;-68
2024/01/01 13:46:20;;;;;;;1.13;1.00;;;;;;;-1.04;67.97;95002.03;6251276;28;20052;-67
2024/01/01 13:49:25;;;;;;;2.60;1.10;;;;;;;-1.17;68.05;95004.34;6268686;28;20422;-67
2024/01/01 13:52:33;;;;;;;7.85;2.17;;;;;;;-1.24;68.47;95003.00;6263785;28;20044;-69
2024/01/01 13:55:37;;;;;;;2.15;1.95;;;;;;;-1.32;69.48;94999.94;6242929;28;20052;-68
2024/01/01 13:58:42;;;;;;;3.45;1.98;;;;;;;-1.24;68.91;95009.00;6242979;28;20057;-67
2024/01/01 14:01:44;;;;;;;0.82;0.77;;;;;;;-1.06;69.79;95001.25;6242515;28;20045;-68
2024/01/01 14:04:50;;;;;;;0.95;0.88;;;;;;;-1.05;70.19;95014.06;6226369;28;20045;-67
2024/01/01 14:07:52;;;;;;;0.70;0.70;;;;;;;-1.01;69.93;95005.28;6243428;28;20503;-68
2024/01/01 14:10:57;;;;;;;0.80;0.80;;;;;;;-0.96;69.91;95003.31;6242736;28;20053;-67
2024/01/01 14:14:02;;;;;;;0.65;0.65;;;;;;;-0.96;70.25;95011.06;6243082;28;20438;-67
2024/01/01 14:17:03;;;;;;;1.15;0.45;;;;;;;-0.74;69.78;94991.91;6225361;28;20045;-67
2024/01/01 14:20:05;;;;;;;1.38;1.00;;;;;;;-0.60;69.35;94986.03;6247248;28;20094;-68
2024/01/01 14:23:14;;;;;;;0.98;0.60;;;;;;;-0.51;69.03;94994.16;6248235;28;20083;-69
2024/01/01 14:26:17;;;;;;;0.82;0.55;;;;;;;-0.42;68.64;94992.84;6247650;28;20053;-67
2024/01/01 14:29:28;;;;;;;0.50;0.40;;;;;;;-0.41;68.25;94983.34;6248081;28;20076;-69
2024/01/01 14:32:29;;;;;;;0.65;0.60;;;;;;;-0.32;68.76;94988.03;6230358;28;20049;-67
2024/01/01 14:35:32;;;;;;;0.50;0.50;;;;;;;-0.28;68.18;94986.97;6247693;28;20480;-67
2024/01/01 14:38:39;;;;;;;0.88;0.70;;;;;;;-0.50;68.58;94977.72;6247920;28;20407;-68